createdAt,value
2023-01-25T00:01:58.338Z,102299.75
2023-01-25T00:07:01.168Z,102303.59
2023-01-25T00:12:04.013Z,102292.09
2023-01-25T00:17:08.077Z,102297.28
2023-01-25T00:22:11.221Z,102296.44
2023-01-25T00:27:13.920Z,102292.09
2023-01-25T00:32:38.017Z,102287.66
2023-01-25T00:37:44.500Z,102292.88
2023-01-25T00:42:47.308Z,102279.91
2023-01-25T00:47:55.464Z,102286.06
2023-01-25T00:52:58.258Z,102286.28
2023-01-25T00:58:00.990Z,102289.53
2023-01-25T01:03:05.113Z,102283.19
2023-01-25T01:08:07.920Z,102284.19
2023-01-25T01:13:10.715Z,102284.09
2023-01-25T01:18:14.922Z,102283.25
2023-01-25T01:23:17.774Z,102267.72
2023-01-25T01:28:20.589Z,102268.47
2023-01-25T01:33:24.850Z,102263.03
2023-01-25T01:38:27.728Z,102256.41
2023-01-25T01:43:31.546Z,102256.59
2023-01-25T01:48:39.368Z,102238.50
2023-01-25T01:53:48.029Z,102226.47
2023-01-25T01:58:52.040Z,102208.47
2023-01-25T02:03:56.582Z,102202.28
2023-01-25T02:08:59.942Z,102211.53
2023-01-25T02:14:03.137Z,102198.44
2023-01-25T02:19:09.127Z,102196.03
2023-01-25T02:24:16.335Z,102188.34
2023-01-25T02:29:24.007Z,102186.94
2023-01-25T02:34:28.139Z,102169.63
2023-01-25T02:39:31.260Z,102184.22
2023-01-25T02:44:35.969Z,102179.72
2023-01-25T02:49:39.814Z,102185.09
2023-01-25T02:54:44.207Z,102177.41
2023-01-25T02:59:48.525Z,102168.72
2023-01-25T03:04:52.211Z,102151.97
2023-01-25T03:09:55.187Z,102166.56
2023-01-25T03:14:59.314Z,102159.06
2023-01-25T03:20:02.605Z,102153.97
2023-01-25T03:25:09.402Z,102145.25
2023-01-25T03:30:16.807Z,102143.44
2023-01-25T03:35:19.888Z,102138.38
2023-01-25T03:40:23.707Z,102129.47
2023-01-25T03:45:27.818Z,102126.78
2023-01-25T03:50:31.312Z,102128.44
2023-01-25T03:55:34.613Z,102128.50
2023-01-25T04:00:39.092Z,102132.22
2023-01-25T04:05:41.992Z,102132.84
2023-01-25T04:10:45.695Z,102132.72
2023-01-25T04:15:51.421Z,102128.44
2023-01-25T04:21:14.180Z,102128.50
2023-01-25T04:26:17.328Z,102120.06
2023-01-25T04:31:28.089Z,102117.47
2023-01-25T04:36:33.039Z,102107.28
2023-01-25T04:41:36.194Z,102096.88
2023-01-25T04:46:40.549Z,102093.41
2023-01-25T04:51:43.447Z,102090.81
2023-01-25T04:56:46.324Z,102099.81
2023-01-25T05:01:50.511Z,102102.38
2023-01-25T05:06:53.305Z,102101.66
2023-01-25T05:11:56.646Z,102090.31
2023-01-25T05:17:11.652Z,102086.94
2023-01-25T05:22:15.846Z,102078.03
2023-01-25T05:27:23.452Z,102081.31
2023-01-25T05:32:30.425Z,102074.56
2023-01-25T05:37:34.208Z,102079.72
2023-01-25T05:42:41.671Z,102092.53
2023-01-25T05:47:57.417Z,102085.63
2023-01-25T05:53:00.338Z,102083.94
2023-01-25T05:58:04.604Z,102079.47
2023-01-25T06:03:09.650Z,102083.72
2023-01-25T06:08:14.791Z,102075.19
2023-01-25T06:13:24.689Z,102068.44
2023-01-25T06:18:31.532Z,102067.97
2023-01-25T06:23:55.456Z,102064.59
2023-01-25T06:28:58.415Z,102066.22
2023-01-25T06:34:04.536Z,102068.16
2023-01-25T06:39:08.078Z,102062.19
2023-01-25T06:44:11.032Z,102060.56
2023-01-25T06:49:15.321Z,102063.63
2023-01-25T06:54:18.105Z,102050.53
2023-01-25T06:59:21.034Z,102048.47
2023-01-25T07:04:25.144Z,102041.41
2023-01-25T07:09:27.971Z,102040.44
2023-01-25T07:14:30.879Z,102043.03
2023-01-25T07:19:35.237Z,102035.06
2023-01-25T07:24:37.952Z,102030.06
2023-01-25T07:29:41.332Z,102024.94
2023-01-25T07:34:45.817Z,102018.75
2023-01-25T07:39:50.562Z,102009.44
2023-01-25T07:44:53.296Z,102002.53
2023-01-25T07:49:57.649Z,102007.28
2023-01-25T07:55:00.487Z,102003.88
2023-01-25T08:00:04.084Z,101992.66
2023-01-25T08:05:16.507Z,101989.16
2023-01-25T08:10:19.429Z,101971.78
2023-01-25T08:15:22.735Z,101981.44
2023-01-25T08:20:26.928Z,101976.28
2023-01-25T08:25:29.639Z,101978.66
2023-01-25T08:30:32.454Z,101988.06
2023-01-25T08:35:37.230Z,101991.44
2023-01-25T08:40:39.968Z,101983.28
2023-01-25T08:45:42.682Z,101975.06
2023-01-25T08:50:49.884Z,101978.13
2023-01-25T08:55:52.568Z,101972.69
2023-01-25T09:00:55.371Z,101972.56
2023-01-25T09:06:00.125Z,101960.13
2023-01-25T09:11:03.438Z,101959.13
2023-01-25T09:16:07.877Z,101961.03
2023-01-25T09:21:14.378Z,101950.78
2023-01-25T09:26:17.703Z,101946.75
2023-01-25T09:31:23.663Z,101953.81
2023-01-25T09:36:48.852Z,101955.50
2023-01-25T09:42:26.221Z,101945.88
2023-01-25T09:47:32.105Z,101948.66
2023-01-25T09:53:01.293Z,101937.28
2023-01-25T09:58:04.461Z,101932.50
2023-01-25T10:03:13.535Z,101922.41
2023-01-25T10:08:25.873Z,101919.69
2023-01-25T10:13:31.772Z,101914.97
2023-01-25T10:18:38.927Z,101905.94
2023-01-25T10:24:19.298Z,101899.38
2023-01-25T10:29:23.416Z,101889.63
2023-01-25T10:34:31.240Z,101882.72
2023-01-25T10:39:40.291Z,101879.84
2023-01-25T10:44:43.003Z,101869.47
2023-01-25T10:49:49.290Z,101861.84
2023-01-25T10:55:09.210Z,101857.47
2023-01-25T11:00:26.043Z,101852.88
2023-01-25T11:05:34.572Z,101838.06
2023-01-25T11:10:39.705Z,101838.28
2023-01-25T11:15:44.608Z,101829.00
2023-01-25T11:20:47.480Z,101829.00
2023-01-25T11:25:52.343Z,101809.59
2023-01-25T11:30:55.140Z,101794.28
2023-01-25T11:36:09.411Z,101785.94
2023-01-25T11:41:19.180Z,101788.41
2023-01-25T11:46:27.194Z,101782.31
2023-01-25T11:51:33.582Z,101771.84
2023-01-25T11:56:49.383Z,101757.31
2023-01-25T12:02:04.767Z,101749.72
2023-01-25T12:07:10.479Z,101741.91
2023-01-25T12:12:21.395Z,101730.34
2023-01-25T12:17:33.447Z,101714.44
2023-01-25T12:22:55.830Z,101707.94
2023-01-25T12:28:08.869Z,101692.56
2023-01-25T12:33:15.400Z,101692.22
2023-01-25T12:38:22.945Z,101686.50
2023-01-25T12:43:29.611Z,101673.44
2023-01-25T12:48:35.356Z,101661.31
2023-01-25T12:53:40.334Z,101660.25
2023-01-25T12:58:48.194Z,101650.72
2023-01-25T13:04:02.951Z,101650.31
2023-01-25T13:09:09.930Z,101635.84
2023-01-25T13:14:30.212Z,101624.53
2023-01-25T13:19:43.243Z,101608.28
2023-01-25T13:25:10.690Z,101598.59
2023-01-25T13:30:31.753Z,101603.59
2023-01-25T13:35:45.333Z,101603.59
2023-01-25T13:41:10.683Z,101588.31
2023-01-25T13:46:17.467Z,101570.56
2023-01-25T13:51:20.626Z,101573.50
2023-01-25T13:56:30.228Z,101562.13
2023-01-25T14:01:35.438Z,101545.50
2023-01-25T14:06:39.663Z,101545.59
2023-01-25T14:11:46.520Z,101548.84
2023-01-25T14:22:14.974Z,101532.97
2023-01-25T14:27:18.080Z,101530.16
2023-01-25T14:32:24.006Z,101514.50
2023-01-25T14:37:26.741Z,101520.63
2023-01-25T14:42:29.634Z,101509.28
2023-01-25T14:47:33.988Z,101513.31
2023-01-25T14:52:36.836Z,101510.34
2023-01-25T14:57:40.902Z,101501.59
2023-01-25T15:02:48.368Z,101492.59
2023-01-25T15:07:53.003Z,101483.13
2023-01-25T15:13:12.793Z,101467.97
2023-01-25T15:18:45.870Z,101464.69
2023-01-25T15:23:50.083Z,101466.09
2023-01-25T15:28:54.041Z,101464.41
2023-01-25T15:33:58.928Z,101457.06
2023-01-25T15:39:01.723Z,101457.00
2023-01-25T15:44:04.475Z,101447.38
2023-01-25T15:49:09.568Z,101430.22
2023-01-25T15:54:12.403Z,101434.63
2023-01-25T15:59:17.579Z,101420.50
2023-01-25T16:04:21.946Z,101418.63
2023-01-25T16:09:26.748Z,101409.03
2023-01-25T16:14:31.627Z,101406.94
2023-01-25T16:19:35.904Z,101401.50
2023-01-25T16:24:39.664Z,101393.19
2023-01-25T16:29:42.429Z,101388.91
2023-01-25T16:34:46.531Z,101387.63
2023-01-25T16:39:49.577Z,101382.69
2023-01-25T16:44:52.499Z,101388.56
2023-01-25T16:49:56.679Z,101381.78
2023-01-25T16:54:59.799Z,101386.84
2023-01-25T17:00:06.910Z,101376.31
2023-01-25T17:05:11.984Z,101379.38
2023-01-25T17:10:14.659Z,101378.78
2023-01-25T17:15:19.843Z,101358.19
2023-01-25T17:20:23.932Z,101351.72
2023-01-25T17:25:26.729Z,101340.97
2023-01-25T17:30:29.497Z,101348.88
2023-01-25T17:35:36.167Z,101334.47
2023-01-25T17:40:38.976Z,101331.78
2023-01-25T17:45:41.810Z,101335.47
2023-01-25T17:50:45.894Z,101322.41
2023-01-25T17:55:48.639Z,101326.53
2023-01-25T18:00:52.502Z,101316.91
2023-01-25T18:05:59.582Z,101315.63
2023-01-25T18:11:02.248Z,101311.00
2023-01-25T18:16:06.349Z,101304.53
2023-01-25T18:21:14.258Z,101292.59
2023-01-25T18:26:18.457Z,101290.75
2023-01-25T18:31:21.300Z,101286.88
2023-01-25T18:36:25.877Z,101278.09
2023-01-25T18:41:31.090Z,101276.41
2023-01-25T18:46:33.951Z,101263.78
2023-01-25T18:51:58.828Z,101258.50
2023-01-25T18:57:01.085Z,101246.91
2023-01-25T19:02:03.895Z,101241.50
2023-01-25T19:07:08.192Z,101246.41
2023-01-25T19:12:10.934Z,101235.66
2023-01-25T19:17:14.223Z,101230.69
2023-01-25T19:22:18.471Z,101234.97
2023-01-25T19:27:21.942Z,101225.16
2023-01-25T19:32:24.658Z,101222.09
2023-01-25T19:37:28.826Z,101221.34
2023-01-25T19:42:31.671Z,101213.13
2023-01-25T19:47:34.465Z,101199.47
2023-01-25T19:52:38.521Z,101198.66
2023-01-25T19:57:41.284Z,101202.19
2023-01-25T20:02:44.054Z,101190.19
2023-01-25T20:07:48.287Z,101182.81
2023-01-25T20:12:51.184Z,101179.91
2023-01-25T20:17:54.038Z,101161.06
2023-01-25T20:22:58.124Z,101172.97
2023-01-25T20:28:00.905Z,101162.88
2023-01-25T20:33:03.628Z,101146.19
2023-01-25T20:38:07.736Z,101132.88
2023-01-25T20:43:10.582Z,101131.00
2023-01-25T20:48:13.325Z,101128.91
2023-01-25T20:53:17.516Z,101119.34
2023-01-25T20:58:20.294Z,101113.00
2023-01-25T21:03:23.204Z,101106.13
2023-01-25T21:08:27.683Z,101098.94
2023-01-25T21:13:35.625Z,101088.13
2023-01-25T21:18:39.658Z,101091.69
2023-01-25T21:23:45.898Z,101091.09
2023-01-25T21:28:50.189Z,101078.88
2023-01-25T21:33:53.246Z,101080.50
2023-01-25T21:38:58.120Z,101074.91
2023-01-25T21:44:20.201Z,101068.66
2023-01-25T21:49:40.462Z,101067.34
2023-01-25T21:54:44.661Z,101071.50
2023-01-25T21:59:48.746Z,101073.44
2023-01-25T22:04:51.665Z,101077.50
2023-01-25T22:09:55.750Z,101066.59
2023-01-25T22:14:58.523Z,101074.06
2023-01-25T22:20:01.432Z,101059.59
2023-01-25T22:25:05.921Z,101051.81
2023-01-25T22:30:11.745Z,101056.91
2023-01-25T22:35:14.756Z,101046.88
2023-01-25T22:40:20.650Z,101044.16
2023-01-25T22:45:23.384Z,101045.75
2023-01-25T22:50:26.204Z,101033.41
2023-01-25T22:55:31.911Z,101039.94
2023-01-25T23:00:34.785Z,101027.31
2023-01-25T23:05:38.269Z,101029.72
2023-01-25T23:10:42.358Z,101016.81
2023-01-25T23:15:45.140Z,101011.34
2023-01-25T23:20:47.851Z,101014.94
2023-01-25T23:25:51.907Z,101005.69
2023-01-25T23:31:11.344Z,101012.09
2023-01-25T23:36:16.012Z,101001.72
2023-01-25T23:41:21.404Z,100994.56
2023-01-25T23:46:24.923Z,100986.75
2023-01-25T23:51:27.670Z,100989.09
2023-01-25T23:56:31.773Z,100969.69
